Latest Weather Observations for Mount Boyce

IDN60801

Issued at 9:33 am EDT Sunday 5 February 2023 (issued every 10 minutes, with the page automatically refreshed every 10 minutes)

About weather observations | Map of weather stations | Latest weather observations for NSW | Other Formats
Station Details ID: 063292 Name: MOUNT BOYCE AWS Lat: -33.62 Lon: 150.27 Height: 1080.0 m
Data from the previous 72 hours. | See also: Recent months at Mount Boyce
Date/Time
EDT
Temp
°C
App
Temp
°C
Dew
Point
°C
Rel
Hum
%
Delta-T
°C
Wind Press
QNH
hPa
Press
MSL
hPa
Rain since
9am
mm
Dir  Spd
km/h
Gust
km/h
Spd
kts
Gust
kts
05/09:30am 13.7 10.2 5.6 58 4.1 W 13 19 7 10 - - 0.0
05/09:00am 12.8 8.9 5.5 61 3.6 W 15 20 8 11 - - 0.0
05/08:30am 12.0 8.2 5.9 66 3.0 WSW 15 20 8 11 - - 0.0
05/08:00am 10.8 6.7 6.0 72 2.4 W 17 20 9 11 - - 0.0
05/07:30am 9.7 5.8 5.5 75 2.0 WSW 15 19 8 10 - - 0.0
05/07:00am 9.4 5.1 5.4 76 1.9 WSW 17 20 9 11 - - 0.0
05/06:30am 9.3 5.0 5.3 76 1.9 WSW 17 20 9 11 - - 0.0
05/06:00am 9.6 5.3 5.2 74 2.1 WSW 17 24 9 13 - - 0.0
05/05:30am 9.9 5.9 5.1 72 2.3 W 15 22 8 12 - - 0.0
05/05:00am 10.0 5.1 5.2 72 2.3 W 20 26 11 14 - - 0.0
05/04:30am 10.3 4.6 5.1 70 2.5 WSW 24 33 13 18 - - 0.0
05/04:00am 10.4 4.7 4.8 68 2.7 W 24 33 13 18 - - 0.0
05/03:30am 10.8 5.4 4.7 66 2.9 W 22 30 12 16 - - 0.0
05/03:00am 10.7 5.6 4.2 64 3.1 WSW 20 26 11 14 - - 0.0
05/02:30am 11.1 4.9 4.1 62 3.3 WSW 26 33 14 18 - - 0.0
05/02:00am 11.0 5.9 4.0 62 3.3 WSW 20 30 11 16 - - 0.0
05/01:30am 11.5 5.6 3.8 59 3.7 WSW 24 32 13 17 - - 0.0
05/01:00am 12.1 5.8 3.9 57 3.9 W 26 39 14 21 - - 0.0
05/12:30am 11.8 6.6 3.6 57 3.9 W 20 32 11 17 - - 0.0
05/12:00am 12.0 6.8 3.3 55 4.1 WSW 20 30 11 16 - - 0.0
 
Date/Time
EDT
Temp
°C
App
Temp
°C
Dew
Point
°C
Rel
Hum
%
Delta-T
°C
Wind Press
QNH
hPa
Press
MSL
hPa
Rain since
9am
mm
Dir  Spd
km/h
Gust
km/h
Spd
kts
Gust
kts
04/11:30pm 12.4 5.7 3.4 54 4.3 WSW 28 41 15 22 - - 0.0
04/11:00pm 12.7 7.0 2.8 51 4.6 W 22 33 12 18 - - 0.0
04/10:58pm 12.6 7.3 3.0 52 4.5 W 20 28 11 15 - - 0.0
04/10:36pm 12.7 7.4 2.8 51 4.6 W 20 32 11 17 - - 0.0
04/10:30pm 12.7 7.5 2.6 50 4.7 W 19 28 10 15 - - 0.0
04/10:00pm 12.8 7.9 2.1 48 4.9 WSW 17 32 9 17 - - 0.0
04/09:30pm 13.0 8.8 1.7 46 5.2 WSW 13 20 7 11 - - 0.0
04/09:00pm 13.7 8.2 1.7 44 5.5 WSW 20 32 11 17 - - 0.0
04/08:30pm 13.9 8.3 1.5 43 5.7 WSW 20 32 11 17 - - 0.0
04/08:00pm 14.6 7.1 1.2 40 6.2 WSW 30 44 16 24 - - 0.0
04/07:31pm 15.7 7.5 0.3 35 7.0 WSW 33 52 18 28 - - 0.0
04/07:30pm 15.7 7.6 0.7 36 6.9 WSW 33 50 18 27 - - 0.0
04/07:10pm 16.3 8.2 0.8 35 7.2 WSW 33 54 18 29 - - 0.0
04/07:00pm 16.5 8.5 0.6 34 7.3 WSW 32 46 17 25 - - 0.0
04/06:39pm 16.9 8.0 0.5 33 7.6 WSW 37 56 20 30 - - 0.0
04/06:30pm 17.2 8.0 1.2 34 7.5 WSW 39 56 21 30 - - 0.0
04/06:00pm 17.7 9.7 1.7 34 7.6 WSW 33 59 18 32 - - 0.0
04/05:30pm 17.5 8.3 1.1 33 7.7 WSW 39 59 21 32 - - 0.0
04/05:24pm 17.8 9.3 0.9 32 7.9 WSW 35 59 19 32 - - 0.0
04/05:00pm 18.2 10.8 2.1 34 7.8 WSW 30 56 16 30 - - 0.0
04/04:30pm 17.7 9.8 0.8 32 7.9 W 32 52 17 28 - - 0.0
04/04:00pm 17.6 10.0 0.7 32 7.9 W 30 59 16 32 - - 0.0
04/03:30pm 17.2 8.6 -0.1 31 7.9 WSW 35 59 19 32 - - 0.0
04/03:00pm 17.6 10.5 1.2 33 7.7 W 28 46 15 25 - - 0.0
04/02:43pm 17.0 9.7 -0.2 31 7.8 W 28 52 15 28 - - 0.0
04/02:30pm 16.5 8.2 -0.2 32 7.6 W 33 48 18 26 - - 0.0
04/02:00pm 16.0 8.3 -0.2 33 7.3 W 30 56 16 30 - - 0.0
04/01:30pm 15.7 7.4 -0.1 34 7.1 W 33 52 18 28 - - 0.0
04/01:00pm 15.5 6.9 0.1 35 7.0 W 35 57 19 31 - - 0.0
04/12:30pm 14.2 5.4 -1.0 35 6.6 WSW 35 56 19 30 - - 0.0
04/12:00pm 13.6 5.8 1.9 45 5.4 W 32 52 17 28 - - 0.0
04/11:54am 13.6 5.8 1.9 45 5.4 W 32 52 17 28 - - 0.0
04/11:30am 12.6 4.6 1.9 48 4.9 W 33 48 18 26 - - 0.0
04/11:00am 11.6 3.6 1.8 51 4.5 W 33 56 18 30 - - 0.0
04/10:55am 12.0 5.0 1.9 50 4.6 WSW 28 48 15 26 - - 0.0
04/10:30am 11.2 5.3 2.0 53 4.2 W 22 39 12 21 - - 0.0
04/10:20am 10.8 3.9 2.6 57 3.8 W 28 46 15 25 - - 0.0
04/10:00am 10.2 4.8 2.3 58 3.6 W 20 35 11 19 - - 0.0
04/09:45am 9.3 2.3 1.7 59 3.4 W 28 46 15 25 - - 0.0
04/09:30am 9.2 1.8 1.9 60 3.3 W 30 44 16 24 - - 0.0
04/09:01am 8.2 1.1 1.4 62 3.0 W 28 48 15 26 - - 0.0
04/09:00am 8.2 1.5 1.4 62 3.0 W 26 48 14 26 - - 0.0
04/08:30am 7.6 1.4 2.1 68 2.4 WSW 24 41 13 22 - - 0.0
04/08:00am 7.0 1.7 2.9 75 1.8 W 20 35 11 19 - - 0.0
04/07:30am 6.5 0.4 2.8 77 1.6 W 24 41 13 22 - - 0.0
04/07:00am 6.4 0.7 2.7 77 1.6 WSW 22 32 12 17 - - 0.0
04/06:30am 6.7 -0.6 2.4 74 1.9 W 30 41 16 22 - - 0.0
04/06:00am 7.1 0.5 2.2 71 2.2 W 26 35 14 19 - - 0.0
04/05:30am 7.1 1.9 2.2 71 2.2 W 19 26 10 14 - - 0.0
04/05:00am 7.6 2.1 1.9 67 2.5 WSW 20 28 11 15 - - 0.0
04/04:30am 8.0 2.5 1.8 65 2.7 WSW 20 30 11 16 - - 0.0
04/04:00am 8.7 2.4 1.8 62 3.1 WSW 24 39 13 21 - - 0.0
04/03:30am 9.3 3.0 1.7 59 3.4 WSW 24 35 13 19 - - 0.0
04/03:00am 9.5 4.2 1.7 58 3.5 WSW 19 28 10 15 - - 0.0
04/02:30am 9.8 4.4 1.5 56 3.7 W 19 28 10 15 - - 0.0
04/02:00am 9.8 4.4 1.5 56 3.7 W 19 30 10 16 - - 0.0
04/01:30am 9.9 4.6 1.8 57 3.6 W 19 30 10 16 - - 0.0
04/01:00am 10.5 4.9 1.3 53 4.1 W 20 30 11 16 - - 0.0
04/12:30am 10.4 5.4 1.2 53 4.1 W 17 24 9 13 - - 0.0
04/12:00am 10.6 5.2 1.2 52 4.2 W 19 28 10 15 - - 0.0
 
Date/Time
EDT
Temp
°C
App
Temp
°C
Dew
Point
°C
Rel
Hum
%
Delta-T
°C
Wind Press
QNH
hPa
Press
MSL
hPa
Rain since
9am
mm
Dir  Spd
km/h
Gust
km/h
Spd
kts
Gust
kts
03/11:30pm 10.6 5.6 1.4 53 4.1 W 17 22 9 12 - - 0.0
03/11:00pm 11.1 5.5 1.4 51 4.3 W 20 28 11 15 - - 0.0
03/10:30pm 11.3 5.0 1.5 51 4.4 W 24 35 13 19 - - 0.0
03/10:00pm 11.7 6.2 1.6 50 4.6 W 20 32 11 17 - - 0.0
03/09:54pm 11.9 6.0 1.5 49 4.7 W 22 32 12 17 - - 0.0
03/09:34pm 12.3 6.8 1.6 48 4.9 W 20 28 11 15 - - 0.0
03/09:30pm 12.4 6.9 1.7 48 4.9 W 20 28 11 15 - - 0.0
03/09:00pm 13.1 7.2 1.8 46 5.2 W 22 32 12 17 - - 0.0
03/08:30pm 13.5 7.6 1.5 44 5.5 W 22 32 12 17 - - 0.0
03/08:00pm 14.1 8.8 1.7 43 5.7 WSW 19 28 10 15 - - 0.0
03/07:30pm 15.8 9.9 1.5 38 6.7 W 22 35 12 19 - - 0.0
03/07:00pm 17.2 12.3 2.0 36 7.3 W 17 30 9 16 - - 0.0
03/06:30pm 17.7 12.2 2.1 35 7.5 WSW 20 35 11 19 - - 0.0
03/06:00pm 18.6 13.8 2.4 34 7.9 W 17 28 9 15 - - 0.0
03/05:30pm 18.7 13.2 2.1 33 8.0 W 20 33 11 18 - - 0.0
03/05:00pm 19.0 12.8 2.4 33 8.1 W 24 39 13 21 - - 0.0
03/04:30pm 19.6 14.0 3.3 34 8.1 W 22 35 12 19 - - 0.0
03/04:00pm 19.2 14.0 3.4 35 7.9 W 20 39 11 21 - - 0.0
03/03:30pm 19.1 13.3 4.5 38 7.4 W 24 43 13 23 - - 0.0
03/03:10pm 17.9 11.4 4.5 41 6.8 W 28 46 15 25 - - 0.0
03/03:00pm 18.3 12.0 3.8 38 7.2 W 26 43 14 23 - - 0.0
03/02:40pm 18.7 13.4 4.8 40 7.1 W 22 41 12 22 - - 0.0
03/02:30pm 18.2 12.4 4.4 40 7.0 W 24 37 13 20 - - 0.0
03/02:27pm 18.3 12.8 4.1 39 7.1 W 22 35 12 19 - - 0.0
03/02:00pm 17.5 10.8 3.8 40 6.8 W 28 50 15 27 - - 0.0
03/01:55pm 18.2 11.8 5.4 43 6.6 W 28 46 15 25 - - 0.0
03/01:52pm 17.1 9.7 3.8 41 6.6 W 32 46 17 25 - - 0.0
03/01:41pm 17.7 10.7 4.3 41 6.7 W 30 50 16 27 - - 0.0
03/01:34pm 17.0 10.2 3.3 40 6.7 W 28 48 15 26 - - 0.0
03/01:30pm 17.3 10.6 3.6 40 6.8 W 28 44 15 24 - - 0.0
03/01:01pm 17.0 10.4 4.3 43 6.3 W 28 46 15 25 - - 0.0
03/01:00pm 17.2 10.3 4.5 43 6.4 W 30 46 16 25 - - 0.0
03/12:36pm 16.5 10.1 5.2 47 5.7 W 28 48 15 26 - - 0.0
03/12:30pm 16.6 11.0 5.3 47 5.7 WSW 24 43 13 23 - - 0.0
03/12:00pm 16.0 10.3 5.0 48 5.5 W 24 39 13 21 - - 0.0
03/11:31am 14.9 8.4 4.9 51 5.0 W 28 46 15 25 - - 0.0
03/11:30am 14.9 8.1 4.9 51 5.0 W 30 46 16 25 - - 0.0
03/11:00am 13.9 7.5 5.0 55 4.4 W 28 54 15 29 - - 0.0
03/10:47am 13.3 5.9 5.2 58 4.0 W 33 52 18 28 - - 0.0
03/10:30am 13.4 7.8 5.3 58 4.0 W 24 46 13 25 - - 0.0
03/10:01am 12.3 5.9 5.0 61 3.6 W 28 50 15 27 - - 0.0
03/10:00am 12.4 6.4 5.3 62 3.5 W 26 50 14 27 - - 0.0
03/09:30am 11.3 3.5 5.0 65 3.1 W 35 54 19 29 - - 0.0
03/09:00am 10.7 3.3 4.8 67 2.8 W 33 54 18 29 - - 0.0
03/08:34am 10.0 3.6 5.2 72 2.3 W 28 46 15 25 - - 0.0
03/08:30am 9.8 3.0 5.0 72 2.3 W 30 43 16 23 - - 0.0
03/08:00am 9.1 2.3 5.3 77 1.8 W 30 48 16 26 - - 0.0
03/07:36am 8.9 2.2 5.6 80 1.6 W 30 48 16 26 - - 0.0
03/07:30am 8.8 2.2 5.9 82 1.4 W 30 43 16 23 - - 0.0
03/07:18am 8.9 2.3 6.0 82 1.4 W 30 48 16 26 - - 0.0
03/07:00am 9.1 1.5 6.0 81 1.5 W 35 52 19 28 - - 0.0
03/06:42am 9.8 2.6 5.8 76 2.0 W 33 52 18 28 - - 0.0
03/06:30am 10.4 3.1 5.6 72 2.3 W 33 48 18 26 - - 0.0
03/06:07am 11.2 4.4 5.3 67 2.9 W 30 50 16 27 - - 0.0
03/06:00am 11.3 4.9 5.4 67 2.9 W 28 41 15 22 - - 0.0
03/05:47am 11.8 4.4 5.2 64 3.2 W 33 52 18 28 - - 0.0
03/05:30am 11.9 4.7 5.1 63 3.3 W 32 46 17 25 - - 0.0
03/05:00am 12.4 5.2 5.1 61 3.6 W 32 50 17 27 - - 0.0
03/04:39am 12.8 6.0 5.2 60 3.8 W 30 50 16 27 - - 0.0
03/04:30am 12.9 6.1 5.3 60 3.8 W 30 43 16 23 - - 0.0
03/04:05am 13.2 6.6 5.9 61 3.7 W 30 48 16 26 - - 0.0
03/04:00am 13.4 6.3 5.6 59 3.9 W 32 48 17 26 - - 0.0
03/03:49am 13.4 6.4 6.0 61 3.7 W 32 50 17 27 - - 0.0
03/03:30am 13.7 6.6 6.3 61 3.8 W 33 46 18 25 - - 0.0
03/03:15am 13.9 7.0 6.3 60 3.9 W 32 52 17 28 - - 0.0
03/03:00am 14.1 7.2 6.5 60 3.9 W 32 46 17 25 - - 0.0
03/02:30am 14.6 8.1 6.7 59 4.1 WSW 30 50 16 27 - - 0.0
03/02:00am 15.1 9.1 6.9 58 4.3 W 28 46 15 25 - - 0.0
03/01:46am 15.5 9.5 7.0 57 4.4 W 28 46 15 25 - - 0.0
03/01:30am 15.8 10.2 7.3 57 4.5 W 26 33 14 18 - - 0.0
03/01:00am 16.6 11.8 7.3 54 4.9 W 22 35 12 19 - - 0.0
03/12:30am 17.0 12.1 7.1 52 5.2 W 22 30 12 16 - - 0.0
03/12:00am 17.5 12.6 7.0 50 5.5 W 22 35 12 19 - - 0.0
 
Date/Time
EDT
Temp
°C
App
Temp
°C
Dew
Point
°C
Rel
Hum
%
Delta-T
°C
Wind Press
QNH
hPa
Press
MSL
hPa
Rain since
9am
mm
Dir  Spd
km/h
Gust
km/h
Spd
kts
Gust
kts
02/11:30pm 17.9 13.0 7.0 49 5.8 W 22 35 12 19 - - 0.0
02/11:00pm 18.7 14.3 6.5 45 6.4 W 19 32 10 17 - - 0.0
02/10:30pm 19.2 15.4 6.0 42 6.9 WNW 15 26 8 14 - - 0.0
02/10:00pm 19.8 15.6 5.8 40 7.3 WNW 17 24 9 13 - - 0.0
02/09:30pm 20.3 15.6 5.1 37 7.9 WNW 19 32 10 17 - - 0.0
02/09:00pm 20.6 16.6 5.0 36 8.1 WNW 15 28 8 15 - - 0.0
02/08:30pm 21.1 17.0 4.6 34 8.5 WNW 15 28 8 15 - - 0.0
02/08:00pm 21.8 16.8 4.4 32 9.0 WNW 20 35 11 19 - - 0.0
02/07:31pm 22.7 16.1 4.2 30 9.6 WNW 28 48 15 26 - - 0.0
02/07:30pm 22.8 16.6 4.3 30 9.6 WNW 26 48 14 26 - - 0.0
02/07:10pm 23.4 16.8 4.4 29 9.9 W 28 48 15 26 - - 0.0
02/07:00pm 23.8 18.2 5.2 30 9.9 W 24 50 13 27 - - 0.0
02/06:51pm 23.8 17.2 4.2 28 10.2 W 28 50 15 27 - - 0.0
02/06:30pm 24.4 18.6 4.2 27 10.6 W 24 46 13 25 - - 0.0
02/06:00pm 24.6 18.2 5.4 29 10.3 WNW 28 50 15 27 - - 0.0
02/05:40pm 24.4 17.9 4.7 28 10.4 W 28 46 15 25 - - 0.0
02/05:30pm 25.6 21.3 6.8 30 10.4 W 19 41 10 22 - - 0.0
02/05:00pm 24.6 17.9 5.4 29 10.3 W 30 48 16 26 - - 0.0
02/04:42pm 23.6 17.5 5.0 30 9.8 W 26 48 14 26 - - 0.0
02/04:30pm 24.3 18.6 6.6 32 9.6 WNW 26 41 14 22 - - 0.0
02/04:00pm 24.3 18.0 5.6 30 10.0 W 28 43 15 23 - - 0.0
02/03:53pm 25.3 19.1 6.0 29 10.5 W 28 52 15 28 - - 0.0
02/03:30pm 23.7 17.8 5.6 31 9.7 WNW 26 50 14 27 - - 0.0
02/03:15pm 24.1 17.6 4.5 28 10.3 W 28 46 15 25 - - 0.0
02/03:00pm 25.0 19.0 5.2 28 10.6 W 26 39 14 21 - - 0.0
02/02:30pm 24.8 20.0 5.6 29 10.3 W 20 43 11 23 - - 0.0
02/02:00pm 24.2 19.6 6.5 32 9.6 W 20 35 11 19 - - 0.0
02/01:30pm 23.5 19.1 6.7 34 9.1 W 19 28 10 15 - - 0.0
02/01:00pm 22.9 18.2 6.2 34 9.0 W 20 32 11 17 - - 0.0
02/12:30pm 21.9 16.1 4.5 32 9.0 W 24 35 13 19 - - 0.0
02/12:00pm 21.8 16.8 4.8 33 8.8 WNW 20 39 11 21 - - 0.0
02/11:30am 20.7 16.5 7.3 42 7.2 W 19 35 10 19 - - 0.0
02/11:00am 20.9 18.8 11.3 54 5.6 W 13 20 7 11 - - 0.0
02/10:30am 19.3 18.8 13.7 70 3.4 W 9 17 5 9 - - 0.0
02/10:00am 18.2 17.1 13.1 72 3.0 W 11 17 6 9 - - 0.0

Other formats

Comma delimited format used in spreadsheet applications
http://www.bom.gov.au/fwo/IDN60801/IDN60801.94743.axf

JavaScript Object Notation format (JSON) in row-major order
http://www.bom.gov.au/fwo/IDN60801/IDN60801.94743.json

Data quality

Most of these data are generated automatically and are frequently updated. Quality checks on data are not normally performed. It is possible for incorrect values to appear. Refer to information at About Latest Weather Observations and please check the disclaimer before using these data.